createdAt,value
2023-05-10T00:01:34.362Z,7.37
2023-05-10T00:03:37.158Z,7.35
2023-05-10T00:05:39.946Z,7.33
2023-05-10T00:07:45.931Z,7.30
2023-05-10T00:09:48.677Z,7.27
2023-05-10T00:11:51.703Z,7.24
2023-05-10T00:13:54.470Z,7.21
2023-05-10T00:15:57.092Z,7.15
2023-05-10T00:17:59.945Z,7.14
2023-05-10T00:20:03.251Z,7.08
2023-05-10T00:22:07.020Z,7.07
2023-05-10T00:24:09.798Z,7.04
2023-05-10T00:26:12.624Z,6.96
2023-05-10T00:28:15.312Z,6.91
2023-05-10T00:30:18.515Z,6.86
2023-05-10T00:32:21.998Z,6.83
2023-05-10T00:34:25.840Z,6.77
2023-05-10T00:36:28.961Z,6.77
2023-05-10T00:38:31.688Z,6.75
2023-05-10T00:40:34.496Z,6.75
2023-05-10T00:42:37.161Z,6.75
2023-05-10T00:44:39.913Z,6.77
2023-05-10T00:46:43.181Z,6.75
2023-05-10T00:48:46.444Z,6.75
2023-05-10T00:50:49.463Z,6.80
2023-05-10T00:52:52.163Z,6.78
2023-05-10T00:54:55.720Z,6.81
2023-05-10T00:56:58.608Z,6.84
2023-05-10T00:59:01.388Z,6.87
2023-05-10T01:01:05.593Z,6.89
2023-05-10T01:03:08.568Z,6.90
2023-05-10T01:05:11.397Z,6.94
2023-05-10T01:07:14.216Z,6.99
2023-05-10T01:09:17.117Z,7.05
2023-05-10T01:11:19.862Z,7.12
2023-05-10T01:13:33.637Z,7.16
2023-05-10T01:15:37.338Z,7.21
2023-05-10T01:17:43.622Z,7.24
2023-05-10T01:19:46.347Z,7.25
2023-05-10T01:22:27.427Z,7.28
2023-05-10T01:25:00.531Z,7.33
2023-05-10T01:27:27.216Z,7.36
2023-05-10T01:29:41.741Z,7.36
2023-05-10T01:32:06.029Z,7.36
2023-05-10T01:34:14.032Z,7.35
2023-05-10T01:36:48.402Z,7.35
2023-05-10T01:38:56.691Z,7.33
2023-05-10T01:41:28.190Z,7.34
2023-05-10T01:43:38.972Z,7.35
2023-05-10T01:45:47.793Z,7.35
2023-05-10T01:48:20.974Z,7.38
2023-05-10T01:50:30.766Z,7.39
2023-05-10T01:52:38.868Z,7.41
2023-05-10T01:54:55.328Z,7.44
2023-05-10T01:57:04.408Z,7.44
2023-05-10T01:59:12.896Z,7.49
2023-05-10T02:01:16.670Z,7.51
2023-05-10T02:03:23.350Z,7.57
2023-05-10T02:05:28.540Z,7.61
2023-05-10T02:07:33.576Z,7.63
2023-05-10T02:09:37.812Z,7.63
2023-05-10T02:11:44.141Z,7.65
2023-05-10T02:13:50.377Z,7.62
2023-05-10T02:15:54.657Z,7.66
2023-05-10T02:17:59.474Z,7.69
2023-05-10T02:20:05.105Z,7.70
2023-05-10T02:22:09.694Z,7.70
2023-05-10T02:24:13.160Z,7.72
2023-05-10T02:26:18.228Z,7.76
2023-05-10T02:28:22.620Z,7.82
2023-05-10T02:30:26.300Z,7.86
2023-05-10T02:32:30.097Z,7.92
2023-05-10T02:34:33.904Z,8.00
2023-05-10T02:36:38.435Z,8.05
2023-05-10T02:38:42.295Z,8.11
2023-05-10T02:40:47.391Z,8.20
2023-05-10T02:42:53.458Z,8.25
2023-05-10T02:45:02.401Z,8.33
2023-05-10T02:47:10.825Z,8.38
2023-05-10T02:49:13.786Z,8.42
2023-05-10T02:51:20.301Z,8.51
2023-05-10T02:53:34.964Z,8.57
2023-05-10T02:55:41.466Z,8.63
2023-05-10T02:58:03.364Z,8.67
2023-05-10T03:00:07.136Z,8.71
2023-05-10T03:02:12.617Z,8.73
2023-05-10T03:04:15.425Z,8.79
2023-05-10T03:06:18.283Z,8.83
2023-05-10T03:08:21.054Z,8.86
2023-05-10T03:10:28.909Z,8.93
2023-05-10T03:13:09.103Z,9.00
2023-05-10T03:15:23.698Z,9.04
2023-05-10T03:17:47.434Z,9.08
2023-05-10T03:19:57.020Z,9.07
2023-05-10T03:22:05.383Z,9.08
2023-05-10T03:24:10.371Z,9.09
2023-05-10T03:26:26.953Z,9.12
2023-05-10T03:28:31.265Z,9.11
2023-05-10T03:30:36.024Z,9.13
2023-05-10T03:32:39.315Z,9.09
2023-05-10T03:34:45.295Z,9.15
2023-05-10T03:36:48.160Z,9.19
2023-05-10T03:38:51.581Z,9.25
2023-05-10T03:40:54.324Z,9.30
2023-05-10T03:42:57.071Z,9.35
2023-05-10T03:44:59.825Z,9.38
2023-05-10T03:47:02.647Z,9.46
2023-05-10T03:49:05.441Z,9.51
2023-05-10T03:51:08.338Z,9.61
2023-05-10T03:53:11.195Z,9.66
2023-05-10T03:55:13.850Z,9.77
2023-05-10T03:57:16.586Z,9.83
2023-05-10T03:59:19.260Z,9.91
2023-05-10T04:01:21.963Z,10.00
2023-05-10T04:03:24.929Z,10.04
2023-05-10T04:05:27.579Z,10.12
2023-05-10T04:07:30.516Z,10.16
2023-05-10T04:09:33.859Z,10.15
2023-05-10T04:11:36.575Z,10.24
2023-05-10T04:13:39.620Z,10.26
2023-05-10T04:15:42.577Z,10.21
2023-05-10T04:17:45.435Z,10.30
2023-05-10T04:19:48.162Z,10.39
2023-05-10T04:21:51.017Z,10.43
2023-05-10T04:23:53.860Z,10.48
2023-05-10T04:26:03.302Z,10.51
2023-05-10T04:28:06.179Z,10.55
2023-05-10T04:30:09.299Z,10.56
2023-05-10T04:32:12.186Z,10.63
2023-05-10T04:34:14.951Z,10.67
2023-05-10T04:36:17.732Z,10.69
2023-05-10T04:38:20.481Z,10.73
2023-05-10T04:40:23.763Z,10.79
2023-05-10T04:42:26.597Z,10.85
2023-05-10T04:44:29.581Z,10.94
2023-05-10T04:46:32.552Z,11.09
2023-05-10T04:48:35.427Z,11.20
2023-05-10T04:50:38.175Z,11.32
2023-05-10T04:52:40.909Z,11.41
2023-05-10T04:54:43.597Z,11.47
2023-05-10T04:56:46.524Z,11.51
2023-05-10T04:58:49.349Z,11.56
2023-05-10T05:00:52.035Z,11.57
2023-05-10T05:02:54.814Z,11.75
2023-05-10T05:04:59.139Z,11.88
2023-05-10T05:07:01.801Z,12.02
2023-05-10T05:09:04.644Z,12.14
2023-05-10T05:11:07.419Z,12.20
2023-05-10T05:13:10.139Z,12.23
2023-05-10T05:15:12.802Z,12.24
2023-05-10T05:17:15.586Z,12.30
2023-05-10T05:19:18.294Z,12.44
2023-05-10T05:21:21.688Z,12.62
2023-05-10T05:23:26.050Z,12.68
2023-05-10T05:25:28.872Z,12.72
2023-05-10T05:27:32.136Z,12.73
2023-05-10T05:29:35.161Z,12.74
2023-05-10T05:31:37.926Z,12.72
2023-05-10T05:33:40.873Z,12.66
2023-05-10T05:35:48.712Z,12.62
2023-05-10T05:37:51.547Z,12.53
2023-05-10T05:39:56.114Z,12.48
2023-05-10T05:41:59.883Z,12.42
2023-05-10T05:44:02.594Z,12.44
2023-05-10T05:46:05.805Z,12.45
2023-05-10T05:48:08.774Z,12.50
2023-05-10T05:50:11.692Z,12.48
2023-05-10T05:52:14.650Z,12.57
2023-05-10T05:54:17.566Z,12.62
2023-05-10T05:56:25.506Z,12.63
2023-05-10T05:58:29.315Z,12.62
2023-05-10T06:00:32.472Z,12.62
2023-05-10T06:02:35.313Z,12.59
2023-05-10T06:04:38.245Z,12.68
2023-05-10T06:06:40.914Z,12.76
2023-05-10T06:08:43.605Z,12.84
2023-05-10T06:10:46.546Z,12.89
2023-05-10T06:12:49.321Z,12.91
2023-05-10T06:14:52.208Z,12.83
2023-05-10T06:16:54.840Z,12.90
2023-05-10T06:18:57.763Z,12.88
2023-05-10T06:21:00.453Z,12.98
2023-05-10T06:23:03.246Z,13.06
2023-05-10T06:25:06.397Z,13.12
2023-05-10T06:27:09.146Z,13.24
2023-05-10T06:29:11.806Z,13.35
2023-05-10T06:31:14.728Z,13.43
2023-05-10T06:33:17.427Z,13.46
2023-05-10T06:35:20.385Z,13.50
2023-05-10T06:37:23.293Z,13.57
2023-05-10T06:39:26.362Z,13.63
2023-05-10T06:41:29.932Z,13.72
2023-05-10T06:43:33.172Z,13.72
2023-05-10T06:45:36.142Z,13.69
2023-05-10T06:47:39.461Z,13.73
2023-05-10T06:49:42.385Z,13.75
2023-05-10T06:51:45.102Z,13.77
2023-05-10T06:53:47.831Z,13.83
2023-05-10T06:55:51.016Z,13.92
2023-05-10T06:57:54.202Z,13.92
2023-05-10T06:59:57.459Z,13.95
2023-05-10T07:02:00.281Z,13.99
2023-05-10T07:04:03.572Z,14.18
2023-05-10T07:06:11.311Z,14.33
2023-05-10T07:08:19.427Z,14.44
2023-05-10T07:10:22.144Z,14.48
2023-05-10T07:12:25.643Z,14.53
2023-05-10T07:14:28.642Z,14.54
2023-05-10T07:16:31.340Z,14.52
2023-05-10T07:18:34.132Z,14.45
2023-05-10T07:20:37.549Z,14.37
2023-05-10T07:22:40.200Z,14.25
2023-05-10T07:24:42.984Z,14.15
2023-05-10T07:26:45.917Z,14.31
2023-05-10T07:28:48.850Z,14.55
2023-05-10T07:30:51.714Z,14.73
2023-05-10T07:32:55.364Z,14.62
2023-05-10T07:34:58.075Z,14.56
2023-05-10T07:37:00.884Z,14.50
2023-05-10T07:39:03.782Z,14.64
2023-05-10T07:41:06.652Z,14.77
2023-05-10T07:43:09.328Z,14.93
2023-05-10T07:45:12.203Z,15.03
2023-05-10T07:47:14.960Z,15.12
2023-05-10T07:49:17.672Z,15.28
2023-05-10T07:51:20.428Z,15.33
2023-05-10T07:53:23.063Z,15.38
2023-05-10T07:55:25.860Z,15.22
2023-05-10T07:57:28.675Z,14.88
2023-05-10T07:59:31.596Z,14.49
2023-05-10T08:01:36.022Z,14.30
2023-05-10T08:03:38.894Z,14.12
2023-05-10T08:05:42.063Z,14.05
2023-05-10T08:07:45.031Z,14.21
2023-05-10T08:09:47.744Z,14.27
2023-05-10T08:11:50.862Z,14.29
2023-05-10T08:13:54.047Z,14.28
2023-05-10T08:15:57.101Z,14.12
2023-05-10T08:17:59.839Z,14.13
2023-05-10T08:20:02.683Z,14.34
2023-05-10T08:22:07.571Z,14.57
2023-05-10T08:24:10.279Z,14.81
2023-05-10T08:26:13.178Z,14.67
2023-05-10T08:28:16.411Z,14.49
2023-05-10T08:30:19.354Z,14.65
2023-05-10T08:32:22.398Z,14.92
2023-05-10T08:34:25.437Z,15.17
2023-05-10T08:36:28.841Z,15.29
2023-05-10T08:38:31.792Z,15.16
2023-05-10T08:40:37.111Z,14.92
2023-05-10T08:42:43.855Z,15.09
2023-05-10T08:44:49.684Z,15.28
2023-05-10T08:46:54.951Z,15.49
2023-05-10T08:49:01.103Z,15.71
2023-05-10T08:51:05.167Z,15.89
2023-05-10T08:53:14.234Z,16.01
2023-05-10T08:55:17.738Z,16.14
2023-05-10T08:57:22.339Z,16.20
2023-05-10T08:59:25.191Z,16.23
2023-05-10T09:01:29.013Z,16.33
2023-05-10T09:03:32.895Z,16.32
2023-05-10T09:05:37.614Z,16.34
2023-05-10T09:07:40.264Z,16.34
2023-05-10T09:09:43.171Z,16.43
2023-05-10T09:11:46.262Z,16.44
2023-05-10T09:13:49.672Z,16.54
2023-05-10T09:15:53.188Z,16.68
2023-05-10T09:17:56.476Z,16.77
2023-05-10T09:20:00.569Z,16.89
2023-05-10T09:22:03.651Z,16.98
2023-05-10T09:24:10.108Z,17.01
2023-05-10T09:26:12.853Z,17.07
2023-05-10T09:28:15.626Z,17.07
2023-05-10T09:30:29.296Z,17.11
2023-05-10T09:32:49.384Z,17.14
2023-05-10T09:34:52.914Z,17.17
2023-05-10T09:36:58.127Z,17.23
2023-05-10T09:39:00.931Z,17.31
2023-05-10T09:41:03.814Z,17.26
2023-05-10T09:43:09.876Z,17.19
2023-05-10T09:45:12.644Z,17.22
2023-05-10T09:47:20.252Z,17.09
2023-05-10T09:49:23.542Z,17.15
2023-05-10T09:51:28.116Z,17.06
2023-05-10T09:53:30.830Z,16.88
2023-05-10T09:55:46.048Z,16.93
2023-05-10T09:57:50.118Z,17.06
2023-05-10T09:59:54.709Z,17.28
2023-05-10T10:01:59.574Z,17.41
2023-05-10T10:04:07.046Z,17.45
2023-05-10T10:06:18.820Z,17.61
2023-05-10T10:08:29.512Z,17.67
2023-05-10T10:10:33.362Z,17.68
2023-05-10T10:12:36.927Z,17.82
2023-05-10T10:14:40.182Z,18.05
2023-05-10T10:16:55.503Z,18.11
2023-05-10T10:19:05.751Z,18.16
2023-05-10T10:21:09.970Z,18.23
2023-05-10T10:23:13.163Z,18.26
2023-05-10T10:25:18.420Z,18.31
2023-05-10T10:27:37.053Z,18.39
2023-05-10T10:29:51.278Z,18.54
2023-05-10T10:32:41.578Z,18.65
2023-05-10T10:34:45.146Z,18.64
2023-05-10T10:36:48.560Z,18.78
2023-05-10T10:39:02.381Z,19.01
2023-05-10T10:41:28.199Z,18.94
2023-05-10T10:43:31.503Z,19.06
2023-05-10T10:45:34.333Z,18.96
2023-05-10T10:47:38.635Z,18.85
2023-05-10T10:49:41.291Z,18.47
2023-05-10T10:52:24.185Z,18.43
2023-05-10T10:54:30.232Z,18.50
2023-05-10T10:56:33.683Z,18.41
2023-05-10T10:58:40.686Z,18.46
2023-05-10T11:00:45.783Z,18.33
2023-05-10T11:02:50.930Z,18.36
2023-05-10T11:04:53.650Z,18.76
2023-05-10T11:07:20.146Z,19.16
2023-05-10T11:09:26.103Z,19.39
2023-05-10T11:11:29.985Z,19.66
2023-05-10T11:13:50.019Z,20.01
2023-05-10T11:15:53.632Z,20.01
2023-05-10T11:17:57.058Z,19.93
2023-05-10T11:20:15.550Z,19.89
2023-05-10T11:22:19.412Z,19.80
2023-05-10T11:24:24.619Z,19.87
2023-05-10T11:26:36.627Z,19.80
2023-05-10T11:28:47.258Z,19.81
2023-05-10T11:30:50.625Z,19.76
2023-05-10T11:32:53.878Z,19.68
2023-05-10T11:34:56.639Z,19.77
2023-05-10T11:36:59.400Z,20.17
2023-05-10T11:39:02.154Z,20.31
2023-05-10T11:41:04.955Z,20.62
2023-05-10T11:43:07.742Z,21.10
2023-05-10T11:45:11.011Z,21.15
2023-05-10T11:47:13.827Z,21.26
2023-05-10T11:49:16.628Z,21.31
2023-05-10T11:51:23.767Z,21.36
2023-05-10T11:53:33.679Z,21.54
2023-05-10T11:55:36.440Z,21.68
2023-05-10T11:57:39.858Z,21.93
2023-05-10T11:59:43.286Z,22.21
2023-05-10T12:01:46.336Z,22.42
2023-05-10T12:03:49.716Z,22.61
2023-05-10T12:05:52.842Z,22.87
2023-05-10T12:08:12.679Z,22.95
2023-05-10T12:10:16.507Z,23.06
2023-05-10T12:12:19.576Z,22.88
2023-05-10T12:14:23.465Z,22.38
2023-05-10T12:16:29.792Z,22.50
2023-05-10T12:18:32.590Z,22.76
2023-05-10T12:20:35.331Z,23.21
2023-05-10T12:22:38.642Z,23.92
2023-05-10T12:24:41.727Z,24.54
2023-05-10T12:26:46.299Z,24.98
2023-05-10T12:28:49.166Z,25.07
2023-05-10T12:30:55.280Z,24.20
2023-05-10T12:33:03.300Z,23.96
2023-05-10T12:35:06.965Z,24.15
2023-05-10T12:37:09.702Z,24.45
2023-05-10T12:39:12.831Z,24.92
2023-05-10T12:41:18.499Z,25.45
2023-05-10T12:43:21.550Z,25.42
2023-05-10T12:45:24.417Z,25.45
2023-05-10T12:47:27.172Z,25.29
2023-05-10T12:49:29.944Z,25.40
2023-05-10T12:51:32.674Z,25.39
2023-05-10T12:53:36.237Z,25.28
2023-05-10T12:55:39.071Z,25.15
2023-05-10T12:57:41.719Z,24.80
2023-05-10T12:59:44.589Z,25.17
2023-05-10T13:01:47.341Z,25.62
2023-05-10T13:03:50.030Z,26.06
2023-05-10T13:05:52.866Z,26.50
2023-05-10T13:07:55.909Z,26.58
2023-05-10T13:09:58.694Z,26.52
2023-05-10T13:12:01.993Z,26.50
2023-05-10T13:14:04.681Z,26.25
2023-05-10T13:16:07.803Z,26.37
2023-05-10T13:18:10.805Z,26.54
2023-05-10T13:20:13.599Z,26.77
2023-05-10T13:22:22.889Z,26.75
2023-05-10T13:24:32.682Z,26.92
2023-05-10T13:26:35.824Z,27.08
2023-05-10T13:28:39.886Z,26.98
2023-05-10T13:30:42.810Z,27.18
2023-05-10T13:32:45.609Z,27.15
2023-05-10T13:34:48.777Z,27.43
2023-05-10T13:36:51.881Z,27.77
2023-05-10T13:38:54.717Z,27.92
2023-05-10T13:40:57.556Z,28.09
2023-05-10T13:43:00.284Z,28.40
2023-05-10T13:45:03.188Z,28.61
2023-05-10T13:47:10.406Z,28.30
2023-05-10T13:49:13.525Z,27.67
2023-05-10T13:51:16.208Z,27.39
2023-05-10T13:53:18.940Z,27.31
2023-05-10T13:55:21.778Z,27.01
2023-05-10T13:57:25.161Z,26.82
2023-05-10T13:59:27.923Z,26.59
2023-05-10T14:01:30.714Z,26.53
2023-05-10T14:03:33.949Z,26.60
2023-05-10T14:05:36.703Z,26.58
2023-05-10T14:07:39.449Z,26.53
2023-05-10T14:09:42.574Z,26.78
2023-05-10T14:11:46.133Z,26.81
2023-05-10T14:13:48.834Z,26.72
2023-05-10T14:15:52.064Z,26.59
2023-05-10T14:17:54.837Z,26.17
2023-05-10T14:19:57.636Z,26.08
2023-05-10T14:22:00.298Z,26.50
2023-05-10T14:24:02.950Z,27.20
2023-05-10T14:26:05.803Z,27.48
2023-05-10T14:28:08.493Z,27.43
2023-05-10T14:30:11.591Z,27.09
2023-05-10T14:32:14.470Z,26.85
2023-05-10T14:34:17.144Z,26.83
2023-05-10T14:36:19.860Z,26.81
2023-05-10T14:38:22.582Z,26.81
2023-05-10T14:40:25.877Z,26.59
2023-05-10T14:42:29.580Z,26.30
2023-05-10T14:44:33.221Z,25.96
2023-05-10T14:46:36.304Z,25.78
2023-05-10T14:48:39.293Z,25.63
2023-05-10T14:50:42.409Z,25.40
2023-05-10T14:52:45.593Z,25.11
2023-05-10T14:54:49.805Z,24.83
2023-05-10T14:56:52.530Z,24.57
2023-05-10T14:58:55.362Z,24.36
2023-05-10T15:00:58.605Z,24.12
2023-05-10T15:03:02.688Z,24.30
2023-05-10T15:05:06.169Z,24.22
2023-05-10T15:07:09.198Z,24.02
2023-05-10T15:09:12.028Z,23.83
2023-05-10T15:11:14.658Z,23.78
2023-05-10T15:13:17.475Z,23.70
2023-05-10T15:15:20.253Z,23.67
2023-05-10T15:17:23.004Z,23.68
2023-05-10T15:19:25.718Z,23.57
2023-05-10T15:21:28.825Z,23.38
2023-05-10T15:23:31.485Z,23.13
2023-05-10T15:25:35.908Z,22.91
2023-05-10T15:27:38.735Z,22.71
2023-05-10T15:29:41.653Z,22.46
2023-05-10T15:31:44.294Z,22.30
2023-05-10T15:33:47.182Z,22.10
2023-05-10T15:35:50.032Z,21.93
2023-05-10T15:37:52.896Z,21.75
2023-05-10T15:39:57.484Z,21.61
2023-05-10T15:42:00.263Z,21.47
2023-05-10T15:44:03.076Z,21.40
2023-05-10T15:46:07.300Z,21.31
2023-05-10T15:48:10.010Z,21.13
2023-05-10T15:50:13.062Z,20.96
2023-05-10T15:52:15.977Z,20.85
2023-05-10T15:54:18.665Z,20.72
2023-05-10T15:56:21.397Z,20.59
2023-05-10T15:58:24.226Z,20.47
2023-05-10T16:00:26.985Z,20.37
2023-05-10T16:02:29.732Z,20.34
2023-05-10T16:04:32.550Z,20.27
2023-05-10T16:06:36.550Z,20.14
2023-05-10T16:08:39.326Z,20.11
2023-05-10T16:10:42.464Z,20.08
2023-05-10T16:12:45.147Z,19.96
2023-05-10T16:14:49.126Z,19.88
2023-05-10T16:16:52.549Z,19.84
2023-05-10T16:18:55.355Z,19.86
2023-05-10T16:20:59.471Z,19.85
2023-05-10T16:23:07.702Z,19.75
2023-05-10T16:25:12.652Z,19.61
2023-05-10T16:27:16.522Z,19.55
2023-05-10T16:29:19.328Z,19.52
2023-05-10T16:31:22.114Z,19.47
2023-05-10T16:33:24.817Z,19.39
2023-05-10T16:35:30.029Z,19.33
2023-05-10T16:37:32.685Z,19.23
2023-05-10T16:39:35.678Z,19.11
2023-05-10T16:41:38.372Z,19.02
2023-05-10T16:43:41.011Z,18.85
2023-05-10T16:45:43.803Z,18.69
2023-05-10T16:47:46.700Z,18.58
2023-05-10T16:49:49.502Z,18.43
2023-05-10T16:51:52.273Z,18.31
2023-05-10T16:53:55.110Z,18.27
2023-05-10T16:55:58.127Z,18.22
2023-05-10T16:58:01.107Z,18.14
2023-05-10T17:00:05.438Z,18.10
2023-05-10T17:02:11.566Z,17.97
2023-05-10T17:04:14.467Z,17.92
2023-05-10T17:06:17.235Z,17.80
2023-05-10T17:08:20.001Z,17.64
2023-05-10T17:10:22.753Z,17.56
2023-05-10T17:12:25.847Z,17.52
2023-05-10T17:14:28.510Z,17.50
2023-05-10T17:16:31.188Z,17.44
2023-05-10T17:18:34.058Z,17.36
2023-05-10T17:20:36.938Z,17.29
2023-05-10T17:22:39.716Z,17.24
2023-05-10T17:24:43.607Z,17.22
2023-05-10T17:26:46.319Z,17.18
2023-05-10T17:28:48.987Z,17.13
2023-05-10T17:30:58.584Z,17.02
2023-05-10T17:33:01.519Z,16.93
2023-05-10T17:35:06.513Z,16.81
2023-05-10T17:37:09.967Z,16.77
2023-05-10T17:39:14.050Z,16.72
2023-05-10T17:41:17.256Z,16.67
2023-05-10T17:43:20.865Z,16.64
2023-05-10T17:45:23.642Z,16.61
2023-05-10T17:47:26.385Z,16.56
2023-05-10T17:49:29.099Z,16.51
2023-05-10T17:51:32.714Z,16.46
2023-05-10T17:53:35.597Z,16.42
2023-05-10T17:55:42.286Z,16.49
2023-05-10T17:57:45.164Z,16.49
2023-05-10T17:59:47.833Z,16.51
2023-05-10T18:01:50.725Z,16.49
2023-05-10T18:03:53.435Z,16.46
2023-05-10T18:05:56.318Z,16.43
2023-05-10T18:07:59.192Z,16.41
2023-05-10T18:10:01.938Z,16.38
2023-05-10T18:12:06.890Z,16.34
2023-05-10T18:14:10.131Z,16.32
2023-05-10T18:16:13.569Z,16.30
2023-05-10T18:18:17.243Z,16.28
2023-05-10T18:20:20.064Z,16.27
2023-05-10T18:22:22.842Z,16.22
2023-05-10T18:24:37.804Z,16.18
2023-05-10T18:26:44.678Z,16.13
2023-05-10T18:28:47.438Z,16.08
2023-05-10T18:30:51.326Z,16.01
2023-05-10T18:32:54.421Z,15.99
2023-05-10T18:34:57.895Z,15.94
2023-05-10T18:37:00.642Z,15.84
2023-05-10T18:39:03.578Z,15.85
2023-05-10T18:41:06.768Z,15.82
2023-05-10T18:43:09.505Z,15.78
2023-05-10T18:45:13.392Z,15.75
2023-05-10T18:47:16.144Z,15.71
2023-05-10T18:49:18.816Z,15.68
2023-05-10T18:51:22.498Z,15.67
2023-05-10T18:53:25.266Z,15.61
2023-05-10T18:55:28.542Z,15.55
2023-05-10T18:57:31.268Z,15.50
2023-05-10T18:59:34.319Z,15.43
2023-05-10T19:01:37.157Z,15.38
2023-05-10T19:03:39.795Z,15.28
2023-05-10T19:05:42.458Z,15.26
2023-05-10T19:07:45.283Z,15.22
2023-05-10T19:09:47.947Z,15.17
2023-05-10T19:11:51.833Z,15.11
2023-05-10T19:13:54.535Z,15.03
2023-05-10T19:16:06.027Z,15.03
2023-05-10T19:18:09.061Z,14.98
2023-05-10T19:20:12.262Z,14.87
2023-05-10T19:22:15.996Z,14.82
2023-05-10T19:24:19.915Z,14.78
2023-05-10T19:26:23.423Z,14.74
2023-05-10T19:28:26.776Z,14.69
2023-05-10T19:30:30.514Z,14.64
2023-05-10T19:32:34.272Z,14.54
2023-05-10T19:34:37.146Z,14.52
2023-05-10T19:36:39.801Z,14.44
2023-05-10T19:38:42.447Z,14.39
2023-05-10T19:40:47.590Z,14.34
2023-05-10T19:42:50.649Z,14.30
2023-05-10T19:44:53.654Z,14.21
2023-05-10T19:46:56.412Z,14.14
2023-05-10T19:48:59.281Z,14.11
2023-05-10T19:51:10.237Z,14.05
2023-05-10T19:53:13.616Z,13.99
2023-05-10T19:55:29.872Z,13.95
2023-05-10T19:57:32.654Z,13.93
2023-05-10T19:59:35.648Z,13.88
2023-05-10T20:01:38.556Z,13.84
2023-05-10T20:03:41.442Z,13.79
2023-05-10T20:05:44.136Z,13.74
2023-05-10T20:07:46.782Z,13.72
2023-05-10T20:09:49.830Z,13.66
2023-05-10T20:11:52.898Z,13.63
2023-05-10T20:13:55.661Z,13.60
2023-05-10T20:15:59.972Z,13.58
2023-05-10T20:18:03.829Z,13.60
2023-05-10T20:20:07.222Z,13.57
2023-05-10T20:22:09.868Z,13.56
2023-05-10T20:24:12.458Z,13.55
2023-05-10T20:26:15.148Z,13.55
2023-05-10T20:28:22.531Z,13.51
2023-05-10T20:30:25.332Z,13.52
2023-05-10T20:32:28.071Z,13.49
2023-05-10T20:34:31.311Z,13.47
2023-05-10T20:36:34.002Z,13.50
2023-05-10T20:38:37.016Z,13.48
2023-05-10T20:40:39.767Z,13.48
2023-05-10T20:42:42.371Z,13.46
2023-05-10T20:44:45.065Z,13.46
2023-05-10T20:46:48.178Z,13.45
2023-05-10T20:48:50.791Z,13.45
2023-05-10T20:50:53.417Z,13.44
2023-05-10T20:52:56.110Z,13.43
2023-05-10T20:54:58.971Z,13.40
2023-05-10T20:57:04.452Z,13.40
2023-05-10T20:59:07.099Z,13.38
2023-05-10T21:01:09.812Z,13.36
2023-05-10T21:03:12.565Z,13.35
2023-05-10T21:05:15.546Z,13.36
2023-05-10T21:07:18.195Z,13.36
2023-05-10T21:09:20.779Z,13.34
2023-05-10T21:11:23.556Z,13.30
2023-05-10T21:13:26.205Z,13.32
2023-05-10T21:15:28.904Z,13.30
2023-05-10T21:17:31.703Z,13.28
2023-05-10T21:19:34.478Z,13.25
2023-05-10T21:21:37.269Z,13.26
2023-05-10T21:23:39.951Z,13.26
2023-05-10T21:25:42.715Z,13.28
2023-05-10T21:27:46.073Z,13.29
2023-05-10T21:29:48.781Z,13.22
2023-05-10T21:31:51.580Z,13.27
2023-05-10T21:33:54.277Z,13.26
2023-05-10T21:35:57.301Z,13.26
2023-05-10T21:38:00.048Z,13.24
2023-05-10T21:40:03.151Z,13.20
2023-05-10T21:42:06.865Z,13.23
2023-05-10T21:44:09.769Z,13.20
2023-05-10T21:46:13.626Z,13.20
2023-05-10T21:48:16.192Z,13.21
2023-05-10T21:50:19.062Z,13.17
2023-05-10T21:52:22.021Z,13.15
2023-05-10T21:54:24.695Z,13.14
2023-05-10T21:56:27.554Z,13.09
2023-05-10T21:58:30.179Z,13.09
2023-05-10T22:00:34.178Z,13.06
2023-05-10T22:02:37.660Z,12.96
2023-05-10T22:04:40.465Z,12.97
2023-05-10T22:06:43.497Z,12.93
2023-05-10T22:08:46.361Z,12.90
2023-05-10T22:10:49.002Z,12.87
2023-05-10T22:12:52.101Z,12.82
2023-05-10T22:15:09.273Z,12.77
2023-05-10T22:17:12.912Z,12.74
2023-05-10T22:19:15.699Z,12.71
2023-05-10T22:21:18.284Z,12.66
2023-05-10T22:23:20.931Z,12.61
2023-05-10T22:25:23.698Z,12.59
2023-05-10T22:27:26.495Z,12.56
2023-05-10T22:29:30.430Z,12.55
2023-05-10T22:31:33.140Z,12.53
2023-05-10T22:33:36.023Z,12.51
2023-05-10T22:35:38.731Z,12.48
2023-05-10T22:37:41.866Z,12.48
2023-05-10T22:39:46.187Z,12.48
2023-05-10T22:41:48.842Z,12.47
2023-05-10T22:43:51.527Z,12.49
2023-05-10T22:45:54.512Z,12.50
2023-05-10T22:47:57.817Z,12.47
2023-05-10T22:50:03.433Z,12.46
2023-05-10T22:52:09.815Z,12.43
2023-05-10T22:54:12.866Z,12.47
2023-05-10T22:56:15.750Z,12.48
2023-05-10T22:58:18.762Z,12.48
2023-05-10T23:00:21.612Z,12.48
2023-05-10T23:02:24.225Z,12.48
2023-05-10T23:04:26.952Z,12.48
2023-05-10T23:06:29.661Z,12.46
2023-05-10T23:08:32.373Z,12.43
2023-05-10T23:10:35.326Z,12.40
2023-05-10T23:12:38.389Z,12.30
2023-05-10T23:14:41.936Z,12.29
2023-05-10T23:16:44.601Z,12.23
2023-05-10T23:18:47.349Z,12.19
2023-05-10T23:20:50.214Z,12.13
2023-05-10T23:22:53.039Z,12.10
2023-05-10T23:24:55.735Z,12.09
2023-05-10T23:26:58.369Z,12.08
2023-05-10T23:29:02.014Z,12.08
2023-05-10T23:31:04.791Z,12.04
2023-05-10T23:33:08.532Z,12.03
2023-05-10T23:35:11.420Z,12.00
2023-05-10T23:37:14.125Z,11.98
2023-05-10T23:39:16.896Z,11.94
2023-05-10T23:41:19.731Z,11.90
2023-05-10T23:43:22.904Z,11.89
2023-05-10T23:45:25.776Z,11.85
2023-05-10T23:47:28.558Z,11.82
2023-05-10T23:49:31.417Z,11.76
2023-05-10T23:51:34.256Z,11.73
2023-05-10T23:53:37.986Z,11.63
2023-05-10T23:55:40.797Z,11.69
2023-05-10T23:57:43.856Z,11.66
2023-05-10T23:59:46.878Z,11.61
